Choix d'un mois et d'une année:    

Climatologie mensuelle : Septembre 2018

Jour Température Vent Pluie Humidité Pression Radiations solaires
min moy max moyen rafale Secteur Max (W/m²) Durée
01/09/2018 9.6 16.6 23 3.3 12 NO 0 62.7 1025.7 945.6 7h55
02/09/2018 9 16.4 22.9 4.6 21.6 N 0 67.6 1023.6 921.5 6h10
03/09/2018 15.3 18.9 26.5 1.6 9.6 NO 0 70.8 1018.6 941.5 1h25
04/09/2018 12.2 19.5 27.5 1.1 9.6 N 0 75 1017.9 889.5 5h00
05/09/2018 12.8 21.8 30.4 1.6 12 N 0 68.7 1017.4 823 8h10
06/09/2018 15.6 20 26.1 3 19.2 O 7.3 80.4 1014.2 825.6 2h15
07/09/2018 10 15.8 19.3 5.9 21.6 SSO 0 83.7 1017.7 605.5 1h40
08/09/2018 6.8 15.1 25.7 1.7 12 ESE 0 75.2 1022.4 881.6 5h55
09/09/2018 9.2 19.6 29.8 1.6 9.6 SE 0 61.9 1022.8 784.8 11h55
09/09/2018 9.2 19 29.8 1.4 9.6 SE 0 63.7 1022.8 784.8 11h55
10/09/2018 9.9 19.4 28.2 3 21.6 OSO 0 64.7 1024.1 773.1 7h10
11/09/2018 10.4 20.3 29.6 3.1 19.2 ESE 0 60.5 1025.7 754.3 11h20
12/09/2018 10.8 22.3 30.9 2.9 16.8 S 0 55.3 1021.8 740.9 11h55
13/09/2018 15.6 17.7 20.9 3.3 12 NO 0 83 1020.8 387.7 0h10
14/09/2018 11 17.4 24.3 2.9 12 OSO 0 72.9 1022.1 843.6 2h15
15/09/2018 7.7 15.5 22.8 1.8 12 NE 0 68.4 1026.2 928.4 8h00
16/09/2018 7.4 17.2 28.1 1.9 9.6 NO 0 64.2 1023.2 756.8 10h45
17/09/2018 7.2 19.2 31.8 1.3 12 ESE 0 63.2 1020.4 741 10h50
18/09/2018 10.6 22.1 32 4 19.2 NO 0 61 1017.1 880.9 9h35
19/09/2018 13.6 22 29.9 4.5 21.6 SSO 0 65.1 1020.7 789.5 9h20
20/09/2018 13 20.5 28.7 3.9 19.2 E 0 66.3 1019.6 699.5 11h05
21/09/2018 12.2 16.4 20.8 6.5 24 ESE 2.1 72.6 1015.1 413.2 2h00
22/09/2018 8.5 13.9 20.1 5.9 24 SSO 1 65.7 1023.3 902.9 2h00
23/09/2018 10.6 16.1 21.4 12.4 38.4 SSE 3.1 90.6 1015.4 502.7 0h00
Moyennes 10.8 18.4 26.3 3.5 - - - 69.3 1020.8 771.6 -
Total - - - - - - 13.5 - - - 158h45


Nombre de jours
Pluie Gel Chaleur
avec pluie : 4 avec gelée : 0 avec chaleur (>=30): 4
avec plus de 1mm : 4 avec forte gelée (<=-5): 0 avec canicule (>=35): 0
avec plus de 5mm : 1 sans dégel : 0
avec plus de 10mm : 0

Répartition des vents
Direction Fréquence
N 8.4
NNE 0
NE 7.7
ENE 0
E 6.5
ESE 8
SE 7.4
SSE 5.5
S 7.5
SSO 10.9
SO 8.3
OSO 7.1
SSO 5.4
ONO 5.8
NO 8
NNO 3.7

Radiations solaires mensuelles : Septembre 2018

Jour Ciel limpide Ciel laiteux Ciel nuageux Ciel couvert Durée
Durée % Durée % Durée % Durée % du jour
01/09/2018 7h55 58.8 0h45 5.6 1h50 13.6 1h55 14.2 13h28
02/09/2018 6h10 46 0h20 2.5 1h45 13 4h20 32.3 13h25
03/09/2018 1h25 10.6 0h40 5 4h20 32.5 6h10 46.2 13h21
04/09/2018 5h00 37.6 1h00 7.5 1h45 13.2 4h35 34.5 13h18
05/09/2018 8h10 61.7 0h55 6.9 1h05 8.2 1h55 14.5 13h14
06/09/2018 2h15 17.1 0h35 4.4 4h40 35.4 4h40 35.4 13h11
07/09/2018 1h40 12.7 0h25 3.2 2h15 17.2 7h35 57.8 13h07
08/09/2018 5h55 45.3 1h25 10.8 4h15 32.5 0h30 3.8 13h04
09/09/2018 11h55 91.7 0h10 1.3 0h00 0 0h00 0 13h00
09/09/2018 11h55 91.7 0h10 1.3 0h00 0 0h00 0 13h00
10/09/2018 7h10 55.4 2h45 21.3 2h00 15.5 0h00 0 12h56
11/09/2018 11h20 88 0h10 1.3 0h15 1.9 0h00 0 12h53
12/09/2018 11h55 93 0h00 0 0h05 0.7 0h00 0 12h49
13/09/2018 0h10 1.3 0h20 2.6 1h45 13.7 9h45 76.4 12h46
14/09/2018 2h15 17.7 0h55 7.2 4h10 32.8 4h20 34.1 12h42
15/09/2018 8h00 63.3 0h45 5.9 1h55 15.2 1h00 7.9 12h38
16/09/2018 10h45 85.4 0h30 4 0h30 4 0h00 0 12h35
17/09/2018 10h50 86.6 0h25 3.3 0h10 1.3 0h00 0 12h31
18/09/2018 9h35 76.9 0h20 2.7 1h30 12 0h00 0 12h28
19/09/2018 9h20 75.3 1h00 8.1 0h55 7.4 0h20 2.7 12h24
20/09/2018 11h05 89.9 0h05 0.7 0h05 0.7 0h00 0 12h20
21/09/2018 2h00 16.3 1h10 9.5 1h15 10.2 6h55 56.3 12h17
22/09/2018 2h00 16.4 1h40 13.6 4h40 38.2 3h00 24.6 12h13
23/09/2018 0h00 0 0h00 0 1h05 8.9 10h15 84.2 12h10
Total 158h45 51.6 16h30 5.9 42h15 14.9 67h15 23.9 -